Time;durP1;ratioP1;P1;durP2;ratioP2;P2;SDS_P1;SDS_P2;PMS_P1;PMS_P2;Temp;Humidity;BMP_temperature;BMP_pressure;BME280_temperature;BME280_humidity;BME280_pressure;Samples;Min_cycle;Max_cycle;Signal;HPM_P1;HPM_P2
2022/09/29 00:02:15;;;;;;;15.40;10.10;;;;;;;7.00;100.00;99875.09;5034119;28;20025;-56
2022/09/29 00:04:41;;;;;;;12.65;9.90;;;;;;;7.01;100.00;99876.81;5034085;28;20120;-55
2022/09/29 00:07:06;;;;;;;11.25;10.00;;;;;;;6.89;100.00;99858.78;5033785;28;20029;-55
2022/09/29 00:09:31;;;;;;;15.55;10.52;;;;;;;6.93;100.00;99873.44;5033946;28;20115;-55
2022/09/29 00:11:57;;;;;;;13.65;10.05;;;;;;;6.90;100.00;99883.91;5033763;28;20368;-55
2022/09/29 00:14:23;;;;;;;12.55;9.80;;;;;;;6.87;100.00;99878.75;5033776;28;20116;-54
2022/09/29 00:16:48;;;;;;;14.23;9.63;;;;;;;6.89;100.00;99877.00;5033701;28;20071;-55
2022/09/29 00:19:14;;;;;;;11.95;9.82;;;;;;;6.89;100.00;99877.00;5033556;28;20491;-55
2022/09/29 00:21:39;;;;;;;13.45;10.93;;;;;;;6.80;100.00;99866.69;5033519;28;20347;-56
2022/09/29 00:24:04;;;;;;;12.93;10.40;;;;;;;6.81;100.00;99869.28;5032217;28;20033;-55
2022/09/29 00:26:30;;;;;;;13.85;10.73;;;;;;;6.80;100.00;99875.38;5033607;28;20029;-55
2022/09/29 00:28:57;;;;;;;13.60;10.20;;;;;;;6.77;100.00;99877.13;5033723;28;20045;-55
2022/09/29 00:31:24;;;;;;;12.93;11.05;;;;;;;6.77;100.00;99874.53;5033493;28;20107;-55
2022/09/29 00:33:49;;;;;;;14.80;10.57;;;;;;;6.75;100.00;99868.53;5033357;28;20041;-55
2022/09/29 00:36:17;;;;;;;12.80;10.65;;;;;;;6.73;100.00;99875.47;5033136;28;20029;-55
2022/09/29 00:38:43;;;;;;;12.27;10.23;;;;;;;6.68;100.00;99877.28;5033467;28;20087;-53
2022/09/29 00:41:16;;;;;;;14.25;10.95;;;;;;;6.68;100.00;99877.28;5033372;28;20043;-54
2022/09/29 00:44:00;;;;;;;13.73;10.75;;;;;;;6.62;100.00;99876.47;5033190;28;20033;-53
2022/09/29 00:46:37;;;;;;;13.93;10.88;;;;;;;6.64;100.00;99876.44;5033058;28;20359;-55
2022/09/29 00:49:13;;;;;;;14.27;10.70;;;;;;;6.63;100.00;99874.72;5033103;28;20029;-52
2022/09/29 00:51:42;;;;;;;15.77;10.43;;;;;;;6.61;100.00;99876.47;5033097;28;20044;-54
2022/09/29 00:54:09;;;;;;;15.45;10.75;;;;;;;6.58;100.00;99866.97;5033117;28;20049;-54
2022/09/29 00:56:37;;;;;;;12.65;10.73;;;;;;;6.57;100.00;99875.69;5033056;28;20040;-55
2022/09/29 00:59:08;;;;;;;13.43;10.35;;;;;;;6.55;100.00;99876.59;5032940;28;20108;-54
2022/09/29 01:01:33;;;;;;;15.98;11.27;;;;;;;6.51;100.00;99873.16;5032905;28;20037;-55
2022/09/29 01:04:07;;;;;;;14.38;10.75;;;;;;;6.51;100.00;99872.28;5032877;28;20037;-53
2022/09/29 01:06:38;;;;;;;13.85;10.43;;;;;;;6.50;100.00;99870.56;5032794;28;20029;-53
2022/09/29 01:09:07;;;;;;;15.35;10.70;;;;;;;6.49;100.00;99867.13;5032767;28;20037;-54
2022/09/29 01:11:33;;;;;;;14.13;10.32;;;;;;;6.49;100.00;99869.72;5015209;28;20425;-55
2022/09/29 01:14:03;;;;;;;14.48;11.05;;;;;;;6.48;100.00;99870.59;5032475;28;20140;-54
2022/09/29 01:16:30;;;;;;;17.85;11.20;;;;;;;6.42;100.00;99869.78;5032545;28;20033;-53
2022/09/29 01:18:58;;;;;;;16.73;10.90;;;;;;;6.41;100.00;99862.88;5032542;28;20355;-54
2022/09/29 01:21:34;;;;;;;13.80;11.30;;;;;;;6.39;100.00;99873.31;5032642;28;20045;-54
2022/09/29 01:24:35;;;;;;;13.73;10.80;;;;;;;6.42;100.00;99867.19;5032397;28;20091;-54
2022/09/29 01:27:11;;;;;;;14.55;11.35;;;;;;;6.38;100.00;99876.78;5032419;28;20109;-54
2022/09/29 01:29:58;;;;;;;13.98;10.65;;;;;;;6.35;100.00;99869.03;5032281;28;20112;-55
2022/09/29 01:32:34;;;;;;;17.42;11.77;;;;;;;6.33;100.00;99872.50;5032215;28;20052;-55
2022/09/29 01:35:23;;;;;;;12.07;10.32;;;;;;;6.30;100.00;99873.41;5031974;28;20117;-55
2022/09/29 01:38:02;;;;;;;14.40;11.05;;;;;;;6.23;100.00;99876.97;5032525;28;20037;-55
2022/09/29 01:40:45;;;;;;;13.57;10.70;;;;;;;6.27;100.00;99874.28;5032184;28;20048;-55
2022/09/29 01:43:19;;;;;;;15.57;10.63;;;;;;;6.23;100.00;99874.38;5032232;28;20052;-54
2022/09/29 01:46:07;;;;;;;16.33;11.27;;;;;;;6.23;100.00;99876.97;5032308;28;20124;-53
2022/09/29 01:48:38;;;;;;;14.35;10.98;;;;;;;6.22;100.00;99877.84;5031916;28;20033;-53
2022/09/29 01:51:11;;;;;;;16.13;10.70;;;;;;;6.20;100.00;99880.47;5031973;28;20037;-53
2022/09/29 01:53:45;;;;;;;12.85;10.55;;;;;;;6.17;100.00;99877.88;5031693;28;20072;-54
2022/09/29 01:56:17;;;;;;;12.27;10.80;;;;;;;6.14;100.00;99877.06;5031898;28;20099;-55
2022/09/29 01:58:57;;;;;;;14.80;11.35;;;;;;;6.05;100.00;99870.25;5031999;28;20033;-55
2022/09/29 02:01:28;;;;;;;14.25;11.32;;;;;;;6.12;100.00;99882.25;5031803;28;20033;-55
2022/09/29 02:04:02;;;;;;;14.00;11.00;;;;;;;6.11;100.00;99877.09;5031655;28;20416;-55
2022/09/29 02:06:37;;;;;;;16.33;11.02;;;;;;;6.11;100.00;99877.09;5031680;28;20033;-55
2022/09/29 02:09:10;;;;;;;16.58;11.45;;;;;;;6.09;100.00;99884.03;5031894;28;20112;-55
2022/09/29 02:11:40;;;;;;;15.07;11.60;;;;;;;6.05;100.00;99885.81;5031840;28;20108;-55
2022/09/29 02:14:20;;;;;;;18.45;11.40;;;;;;;6.06;100.00;99877.13;5031580;28;20052;-55
2022/09/29 02:17:06;;;;;;;14.95;11.77;;;;;;;6.06;100.00;99876.31;5031584;28;20040;-55
2022/09/29 02:19:36;;;;;;;16.35;11.98;;;;;;;6.03;100.00;99891.91;5031680;28;20052;-53
2022/09/29 02:22:01;;;;;;;14.07;11.20;;;;;;;6.01;100.00;99878.06;5031509;28;20048;-55
2022/09/29 02:24:28;;;;;;;13.98;11.88;;;;;;;5.99;100.00;99885.00;5031537;28;20033;-53
2022/09/29 02:26:54;;;;;;;15.40;11.65;;;;;;;5.97;100.00;99886.75;5031496;28;20140;-54
2022/09/29 02:29:20;;;;;;;17.45;12.35;;;;;;;5.99;100.00;99879.81;5031669;28;20511;-54
2022/09/29 02:31:47;;;;;;;15.43;12.73;;;;;;;5.99;100.00;99885.88;5031610;28;20120;-54
2022/09/29 02:34:16;;;;;;;18.27;13.05;;;;;;;5.98;100.00;99883.28;5031597;28;20069;-55
2022/09/29 02:37:00;;;;;;;19.35;13.82;;;;;;;6.04;100.00;99884.09;5031380;28;20130;-54
2022/09/29 02:39:39;;;;;;;17.75;13.25;;;;;;;6.05;100.00;99882.38;5031636;28;20040;-54
2022/09/29 02:42:05;;;;;;;15.32;12.55;;;;;;;5.83;100.00;99843.59;5031603;28;20038;-55
2022/09/29 02:45:14;;;;;;;19.23;13.67;;;;;;;6.02;100.00;99879.78;5033373;28;20029;-55
2022/09/29 02:48:04;;;;;;;17.60;13.50;;;;;;;5.98;100.00;99888.50;5023309;28;20316;-54
2022/09/29 02:50:41;;;;;;;16.02;12.45;;;;;;;5.94;100.00;99882.47;5035279;28;20351;-55
2022/09/29 02:53:32;;;;;;;17.65;12.80;;;;;;;5.90;100.00;99881.63;5035071;28;20034;-53
2022/09/29 02:56:38;;;;;;;15.93;12.60;;;;;;;5.89;100.00;99890.28;5035177;28;20037;-55
2022/09/29 02:59:14;;;;;;;19.48;13.10;;;;;;;5.80;100.00;99885.16;5035382;28;20391;-54
2022/09/29 03:01:48;;;;;;;18.88;12.80;;;;;;;5.77;100.00;99879.13;5034818;28;20029;-55
2022/09/29 03:04:13;;;;;;;16.40;12.43;;;;;;;5.76;100.00;99882.59;5035189;28;20038;-54
2022/09/29 03:06:39;;;;;;;17.10;12.23;;;;;;;5.76;100.00;99886.06;5035130;28;20107;-55
2022/09/29 03:09:04;;;;;;;16.52;12.95;;;;;;;5.76;100.00;99882.59;5035003;28;20134;-55
2022/09/29 03:11:29;;;;;;;15.90;12.73;;;;;;;5.75;100.00;99886.94;5035214;28;20498;-55
2022/09/29 03:13:55;;;;;;;17.48;13.10;;;;;;;5.72;100.00;99886.94;5034582;28;20033;-55
2022/09/29 03:16:20;;;;;;;16.00;12.93;;;;;;;5.71;100.00;99887.00;5034910;28;20101;-55
2022/09/29 03:18:45;;;;;;;17.58;12.82;;;;;;;5.70;100.00;99878.34;5034695;28;20040;-55
2022/09/29 03:21:11;;;;;;;16.80;13.30;;;;;;;5.69;100.00;99881.81;5034774;28;20033;-55
2022/09/29 03:23:36;;;;;;;18.92;13.52;;;;;;;5.67;100.00;99880.09;5034969;28;20045;-55
2022/09/29 03:26:01;;;;;;;19.80;13.18;;;;;;;5.65;100.00;99879.25;5034704;28;20112;-55
2022/09/29 03:28:26;;;;;;;17.35;14.27;;;;;;;5.64;100.00;99881.00;5034737;28;20060;-53
2022/09/29 03:30:54;;;;;;;17.10;13.30;;;;;;;5.63;100.00;99873.22;5034602;28;20037;-55
2022/09/29 03:33:19;;;;;;;16.27;12.80;;;;;;;5.62;100.00;99874.94;5034578;28;20360;-52
2022/09/29 03:35:44;;;;;;;19.38;13.27;;;;;;;5.65;100.00;99876.66;5034548;28;20069;-53
2022/09/29 03:38:10;;;;;;;18.92;13.45;;;;;;;5.63;100.00;99881.84;5034487;28;20051;-53
2022/09/29 03:40:35;;;;;;;17.38;12.55;;;;;;;5.62;100.00;99874.94;5034533;28;20440;-55
2022/09/29 03:43:00;;;;;;;17.55;12.98;;;;;;;5.59;100.00;99886.22;5034445;28;20029;-55
2022/09/29 03:45:26;;;;;;;14.57;12.55;;;;;;;5.59;100.00;99885.34;5034305;28;20041;-53
2022/09/29 03:47:51;;;;;;;16.02;12.02;;;;;;;5.53;100.00;99885.41;5033973;28;20120;-54
2022/09/29 03:50:16;;;;;;;17.15;13.02;;;;;;;5.52;100.00;99884.56;5034040;28;20063;-55
2022/09/29 03:52:42;;;;;;;17.60;12.73;;;;;;;5.51;100.00;99882.84;5034305;28;20045;-53
2022/09/29 03:55:07;;;;;;;15.00;12.32;;;;;;;5.50;100.00;99878.53;5034241;28;20064;-55
2022/09/29 03:57:33;;;;;;;17.65;12.90;;;;;;;5.46;100.00;99883.75;5034011;28;20029;-54
2022/09/29 03:59:58;;;;;;;17.90;13.38;;;;;;;5.50;100.00;99888.03;5034235;28;20458;-53
2022/09/29 04:02:23;;;;;;;19.02;14.25;;;;;;;5.50;100.00;99885.44;5033750;28;20037;-54
2022/09/29 04:04:48;;;;;;;18.25;13.85;;;;;;;5.48;100.00;99892.38;5034160;28;20057;-55
2022/09/29 04:07:14;;;;;;;17.35;12.95;;;;;;;5.47;100.00;99894.09;5034087;28;20714;-55
2022/09/29 04:09:39;;;;;;;19.98;12.95;;;;;;;5.44;100.00;99888.06;5034007;28;20727;-55
2022/09/29 04:12:05;;;;;;;16.58;13.00;;;;;;;5.43;100.00;99902.78;5034137;28;20037;-55
2022/09/29 04:14:30;;;;;;;16.45;12.95;;;;;;;5.39;100.00;99903.66;5033891;28;20061;-55
2022/09/29 04:16:55;;;;;;;15.55;12.30;;;;;;;5.34;100.00;99907.19;5034011;28;20527;-55
2022/09/29 04:19:21;;;;;;;18.58;13.48;;;;;;;5.35;100.00;99906.31;5033855;28;20044;-53
2022/09/29 04:21:46;;;;;;;17.65;13.25;;;;;;;5.34;100.00;99905.47;5033878;28;20051;-55
2022/09/29 04:24:11;;;;;;;18.55;13.00;;;;;;;5.28;100.00;99915.00;5033854;28;20120;-54
2022/09/29 04:26:38;;;;;;;17.75;13.00;;;;;;;5.28;100.00;99904.63;5033655;28;20030;-54
2022/09/29 04:29:04;;;;;;;18.63;13.52;;;;;;;5.29;100.00;99916.72;5033759;28;20043;-55
2022/09/29 04:31:29;;;;;;;18.38;14.00;;;;;;;5.34;100.00;99914.97;5033672;28;20534;-52
2022/09/29 04:33:55;;;;;;;18.42;13.70;;;;;;;5.31;100.00;99915.00;5033566;28;20037;-55
2022/09/29 04:36:20;;;;;;;17.63;13.35;;;;;;;5.29;100.00;99921.91;5033494;28;20052;-54
2022/09/29 04:38:45;;;;;;;16.73;12.77;;;;;;;5.26;100.00;99925.38;5033333;28;20037;-55
2022/09/29 04:41:10;;;;;;;18.63;12.82;;;;;;;5.25;100.00;99919.34;5033350;28;20337;-54
2022/09/29 04:43:36;;;;;;;17.45;13.10;;;;;;;5.25;100.00;99919.34;5033260;28;20068;-54
2022/09/29 04:46:04;;;;;;;15.63;12.18;;;;;;;5.23;100.00;99923.66;5033149;28;20033;-54
2022/09/29 04:48:29;;;;;;;19.75;13.02;;;;;;;5.19;100.00;99922.00;5032954;28;20041;-55
2022/09/29 04:50:54;;;;;;;17.77;12.75;;;;;;;5.13;100.00;99916.84;5033128;28;20428;-55
2022/09/29 04:53:19;;;;;;;18.00;13.32;;;;;;;5.18;100.00;99924.59;5033051;28;20053;-54
2022/09/29 04:55:45;;;;;;;17.88;14.65;;;;;;;5.22;100.00;99924.53;5033209;28;20092;-54
2022/09/29 04:58:10;;;;;;;19.67;14.23;;;;;;;5.16;100.00;99918.56;5033455;28;20029;-55
2022/09/29 05:00:35;;;;;;;19.77;13.80;;;;;;;5.21;100.00;99929.72;5033044;28;20519;-53
2022/09/29 05:03:02;;;;;;;20.58;13.98;;;;;;;5.22;100.00;99923.69;5032838;28;20136;-53
2022/09/29 05:05:27;;;;;;;23.30;14.88;;;;;;;5.19;100.00;99926.31;5032892;28;20052;-54
2022/09/29 05:07:53;;;;;;;21.25;14.20;;;;;;;5.23;100.00;99925.41;5032716;28;20375;-54
2022/09/29 05:10:18;;;;;;;20.98;15.38;;;;;;;5.24;100.00;99940.09;5032080;28;20029;-54
2022/09/29 05:12:48;;;;;;;20.90;14.68;;;;;;;5.24;100.00;99946.16;5032909;28;20037;-54
2022/09/29 05:15:15;;;;;;;20.02;14.10;;;;;;;5.23;100.00;99953.94;5032368;28;20116;-54
2022/09/29 05:17:40;;;;;;;21.55;14.95;;;;;;;5.19;100.00;99949.66;5032675;28;20053;-53
2022/09/29 05:20:05;;;;;;;17.00;14.32;;;;;;;5.18;100.00;99946.19;5032474;28;20033;-55
2022/09/29 05:22:31;;;;;;;23.13;15.35;;;;;;;5.16;100.00;99947.94;5032675;28;20037;-54
2022/09/29 05:24:56;;;;;;;17.83;14.02;;;;;;;5.14;100.00;99960.06;5032641;28;20044;-55
2022/09/29 05:27:21;;;;;;;17.67;13.45;;;;;;;5.13;100.00;99958.31;5032280;28;20029;-53
2022/09/29 05:29:47;;;;;;;19.38;14.40;;;;;;;5.07;100.00;99960.94;5032465;28;20045;-52
2022/09/29 05:32:12;;;;;;;20.05;13.65;;;;;;;5.08;100.00;99964.41;5032240;28;20124;-54
2022/09/29 05:34:37;;;;;;;21.98;14.02;;;;;;;5.05;100.00;99960.09;5032405;28;20033;-52
2022/09/29 05:37:03;;;;;;;18.55;14.57;;;;;;;5.02;100.00;99962.69;5032300;28;20065;-54
2022/09/29 05:39:30;;;;;;;18.80;13.70;;;;;;;5.03;100.00;99956.63;5032153;28;20421;-53
2022/09/29 05:41:56;;;;;;;18.95;13.88;;;;;;;5.03;100.00;99971.31;5032216;28;20043;-51
2022/09/29 05:44:21;;;;;;;19.80;13.95;;;;;;;5.01;100.00;99961.00;5032082;28;20037;-51
2022/09/29 05:46:47;;;;;;;20.83;13.90;;;;;;;5.03;100.00;99967.00;5031896;28;20033;-54
2022/09/29 05:49:12;;;;;;;16.60;13.85;;;;;;;5.00;100.00;99968.78;5032156;28;20450;-53
2022/09/29 05:51:37;;;;;;;18.63;14.13;;;;;;;5.00;100.00;99967.03;5031996;28;20067;-53
2022/09/29 05:54:02;;;;;;;23.65;15.05;;;;;;;5.01;100.00;99970.50;5031844;28;20053;-54
2022/09/29 05:56:28;;;;;;;23.23;15.48;;;;;;;5.02;100.00;99970.47;5031935;28;20033;-55
2022/09/29 05:58:54;;;;;;;22.95;16.02;;;;;;;5.02;100.00;99974.81;5031867;28;20033;-54
2022/09/29 06:01:24;;;;;;;22.77;15.25;;;;;;;5.06;100.00;99982.56;5031412;28;20348;-54
2022/09/29 06:03:52;;;;;;;23.55;15.15;;;;;;;5.01;100.00;99980.88;5031779;28;20040;-51
2022/09/29 06:06:20;;;;;;;21.52;15.27;;;;;;;5.01;100.00;99981.75;5031890;28;20061;-53
2022/09/29 06:08:46;;;;;;;22.67;16.02;;;;;;;5.01;100.00;99981.75;5031775;28;20428;-54
2022/09/29 06:11:14;;;;;;;20.00;15.68;;;;;;;5.02;100.00;99980.84;5031924;28;20047;-50
2022/09/29 06:13:41;;;;;;;22.23;15.25;;;;;;;5.06;100.00;99986.88;5031396;28;20094;-54
2022/09/29 06:16:07;;;;;;;23.25;16.23;;;;;;;5.06;100.00;99984.28;5030957;28;20074;-52
2022/09/29 06:18:33;;;;;;;19.50;15.32;;;;;;;5.15;100.00;99992.91;5031690;28;20120;-50
2022/09/29 06:21:03;;;;;;;25.25;16.65;;;;;;;5.31;100.00;99993.66;5031420;28;20103;-54
2022/09/29 06:23:29;;;;;;;22.73;16.67;;;;;;;5.57;100.00;99990.91;5028855;28;20608;-52
2022/09/29 06:25:56;;;;;;;23.58;17.15;;;;;;;5.77;100.00;99993.34;5031459;28;20120;-54
2022/09/29 06:28:22;;;;;;;25.08;17.05;;;;;;;5.84;100.00;99989.84;5030941;28;20079;-54
2022/09/29 06:30:47;;;;;;;21.75;16.20;;;;;;;5.94;100.00;99988.91;5031383;28;20069;-54
2022/09/29 06:33:12;;;;;;;26.38;17.95;;;;;;;6.14;100.00;99988.75;5031120;28;20095;-55
2022/09/29 06:38:21;;;;;;;23.40;17.00;;;;;;;6.50;100.00;100000.53;5030978;28;20056;-54
2022/09/29 06:40:47;;;;;;;25.73;17.73;;;;;;;6.68;100.00;99996.88;5030983;28;20049;-54
2022/09/29 06:43:12;;;;;;;25.42;17.05;;;;;;;6.80;100.00;100001.91;5031200;28;20341;-55
2022/09/29 06:45:37;;;;;;;27.17;15.85;;;;;;;6.99;100.00;100004.28;5030828;28;20026;-55
2022/09/29 06:48:03;;;;;;;25.27;16.30;;;;;;;7.21;100.00;100002.28;5031127;28;20033;-55
2022/09/29 06:50:28;;;;;;;24.05;17.52;;;;;;;7.29;100.00;100009.97;5031105;28;20025;-55
2022/09/29 06:52:54;;;;;;;23.05;15.95;;;;;;;7.31;100.00;100014.25;5030979;28;20072;-54
2022/09/29 06:55:19;;;;;;;27.23;16.30;;;;;;;7.28;100.00;100016.03;5030962;28;20131;-52
2022/09/29 06:57:44;;;;;;;24.60;16.38;;;;;;;7.34;100.00;100015.97;5031084;28;20337;-56
2022/09/29 07:00:10;;;;;;;25.00;15.82;;;;;;;7.34;100.00;100013.38;5031141;28;20026;-55
2022/09/29 07:02:35;;;;;;;20.20;15.60;;;;;;;7.35;100.00;100017.69;5031107;28;20041;-57
2022/09/29 07:05:01;;;;;;;22.90;15.85;;;;;;;7.26;100.00;99999.63;5030992;28;20481;-53
2022/09/29 07:07:26;;;;;;;25.02;16.88;;;;;;;7.42;100.00;100018.47;5031115;28;20038;-55
2022/09/29 07:09:51;;;;;;;27.27;16.35;;;;;;;7.47;100.00;100024.47;5030984;28;20033;-56
2022/09/29 07:12:17;;;;;;;28.38;16.75;;;;;;;7.53;100.00;100025.25;5031008;28;20040;-56
2022/09/29 07:14:42;;;;;;;23.80;16.25;;;;;;;7.61;100.00;100027.75;5030705;28;20033;-54
2022/09/29 07:17:08;;;;;;;26.40;16.00;;;;;;;7.73;100.00;100024.97;5029912;28;20116;-53
2022/09/29 07:19:33;;;;;;;23.80;16.15;;;;;;;7.84;100.00;100030.00;5031251;28;20353;-55
2022/09/29 07:21:59;;;;;;;27.23;15.40;;;;;;;7.88;100.00;100031.69;5031036;28;20116;-55
2022/09/29 07:24:25;;;;;;;22.85;15.43;;;;;;;7.85;100.00;100035.19;5030613;28;20048;-56
2022/09/29 07:26:50;;;;;;;25.70;16.23;;;;;;;7.86;100.00;100039.50;5030121;28;20437;-54
2022/09/29 07:29:16;;;;;;;23.08;15.48;;;;;;;7.88;100.00;100039.50;5030772;28;20033;-54
2022/09/29 07:31:41;;;;;;;23.35;15.30;;;;;;;7.90;100.00;100040.34;5031185;28;20120;-55
2022/09/29 07:34:06;;;;;;;21.52;15.60;;;;;;;7.93;100.00;100041.16;5034540;28;20037;-56
2022/09/29 07:36:32;;;;;;;22.55;14.15;;;;;;;7.96;100.00;100042.84;5034673;28;20033;-54
2022/09/29 07:38:58;;;;;;;22.00;15.45;;;;;;;8.06;100.00;100048.75;5034369;28;20378;-54
2022/09/29 07:41:24;;;;;;;22.77;15.70;;;;;;;8.06;100.00;100040.94;5034195;28;20048;-56
2022/09/29 07:43:49;;;;;;;24.27;14.85;;;;;;;8.13;100.00;100048.66;5034097;28;20519;-55
2022/09/29 07:46:15;;;;;;;20.10;14.98;;;;;;;8.20;100.00;100052.88;5034430;28;20115;-56
2022/09/29 07:48:41;;;;;;;23.17;14.65;;;;;;;8.24;100.00;100056.28;5034375;28;20043;-56
2022/09/29 07:51:10;;;;;;;20.48;14.77;;;;;;;8.26;100.00;100051.91;5034366;28;20128;-57
2022/09/29 07:53:36;;;;;;;20.60;14.65;;;;;;;8.29;100.00;100057.94;5033790;28;20057;-55
2022/09/29 07:56:09;;;;;;;21.83;14.98;;;;;;;8.36;100.00;100053.50;5034262;28;20671;-54
2022/09/29 07:58:36;;;;;;;20.58;15.07;;;;;;;8.58;100.00;100060.06;5034209;28;20029;-54
2022/09/29 08:01:05;;;;;;;22.25;14.32;;;;;;;8.76;100.00;100064.09;5034007;28;20370;-55
2022/09/29 08:03:31;;;;;;;23.77;14.60;;;;;;;8.83;100.00;100070.06;5034139;28;20122;-55
2022/09/29 08:05:56;;;;;;;29.42;14.88;;;;;;;8.78;100.00;100061.47;5034063;28;20047;-55
2022/09/29 08:08:22;;;;;;;20.73;14.13;;;;;;;8.73;100.00;100066.75;5033841;28;20037;-55
2022/09/29 08:10:48;;;;;;;21.80;15.02;;;;;;;8.71;100.00;100066.78;5033848;28;20037;-55
2022/09/29 08:13:13;;;;;;;20.27;14.73;;;;;;;8.69;100.00;100078.13;5033710;28;20416;-56
2022/09/29 08:15:38;;;;;;;23.83;14.80;;;;;;;8.66;100.00;100073.81;5033981;28;20095;-56
2022/09/29 08:18:03;;;;;;;21.25;14.10;;;;;;;8.56;100.00;100071.41;5033867;28;20041;-56
2022/09/29 08:20:30;;;;;;;20.92;14.90;;;;;;;8.53;100.00;100084.50;5033986;28;20043;-56
2022/09/29 08:22:55;;;;;;;18.58;13.73;;;;;;;8.50;100.00;100089.75;5033414;28;20371;-56
2022/09/29 08:25:22;;;;;;;18.92;14.10;;;;;;;8.49;100.00;100086.28;5016017;28;20037;-57
2022/09/29 08:27:48;;;;;;;22.67;14.85;;;;;;;8.54;100.00;100092.28;5033395;28;20037;-56
2022/09/29 08:30:14;;;;;;;24.58;14.73;;;;;;;8.61;100.00;100090.44;5033497;28;20037;-57
2022/09/29 08:32:39;;;;;;;21.85;15.60;;;;;;;8.70;100.00;100101.56;5033674;28;20044;-56
2022/09/29 08:35:05;;;;;;;22.95;15.35;;;;;;;8.75;100.00;100091.06;5033465;28;20029;-56
2022/09/29 08:37:31;;;;;;;21.73;14.38;;;;;;;8.87;100.00;100095.19;5033342;28;20108;-56
2022/09/29 08:39:56;;;;;;;25.60;14.93;;;;;;;8.98;100.00;100107.16;5033193;28;20029;-55
2022/09/29 08:42:56;;;;;;;20.95;15.15;;;;;;;9.17;100.00;100112.03;5033363;28;20052;-56
2022/09/29 08:45:32;;;;;;;22.73;14.10;;;;;;;9.43;99.87;100110.63;4999787;28;20057;-57
2022/09/29 08:48:09;;;;;;;19.33;14.25;;;;;;;9.55;99.17;100111.25;5033063;28;20041;-55
2022/09/29 08:50:41;;;;;;;20.83;14.25;;;;;;;9.58;98.47;100108.56;5033097;28;20099;-56
2022/09/29 08:53:11;;;;;;;20.75;13.93;;;;;;;9.72;97.43;100119.56;5032821;28;20045;-57
2022/09/29 08:55:43;;;;;;;20.67;13.10;;;;;;;9.91;96.29;100117.41;5032866;28;20037;-56
2022/09/29 08:58:15;;;;;;;21.45;13.75;;;;;;;10.10;96.30;100121.34;5032651;28;20387;-57
2022/09/29 09:01:08;;;;;;;20.23;13.95;;;;;;;10.32;96.32;100113.91;5032931;28;20029;-52
2022/09/29 09:03:36;;;;;;;;;;;;;;;10.48;98.42;100114.38;5033472;28;20041;-56
2022/09/29 09:06:13;;;;;;;20.42;12.93;;;;;;;10.64;94.39;100108.72;5032678;28;19959;-55
2022/09/29 09:09:14;;;;;;;17.20;13.00;;;;;;;10.79;94.74;100117.94;5033006;28;20052;-55
2022/09/29 09:12:27;;;;;;;17.25;12.82;;;;;;;10.88;94.26;100099.38;5022053;28;20044;-56
2022/09/29 09:14:52;;;;;;;;;;;;;;;11.11;95.62;100117.06;4988936;28;20041;-56
2022/09/29 09:17:38;;;;;;;18.23;11.95;;;;;;;11.07;91.10;100125.94;5032577;28;19975;-56
2022/09/29 09:20:30;;;;;;;18.65;12.52;;;;;;;11.11;91.47;100124.94;5014864;28;20044;-56
2022/09/29 09:23:15;;;;;;;16.38;11.52;;;;;;;11.24;89.22;100125.47;5032321;28;20364;-56
2022/09/29 09:25:50;;;;;;;19.70;12.13;;;;;;;11.53;89.94;100125.50;5032429;28;20056;-56
2022/09/29 09:28:18;;;;;;;12.88;10.60;;;;;;;11.74;86.72;100130.13;5032577;28;20025;-56
2022/09/29 09:30:56;;;;;;;15.18;10.82;;;;;;;11.94;88.34;100123.47;5032548;28;20037;-55
2022/09/29 09:33:31;;;;;;;18.58;10.07;;;;;;;12.16;87.15;100124.50;5032564;28;20048;-55
2022/09/29 09:36:05;;;;;;;15.15;10.65;;;;;;;12.27;85.29;100117.16;5031995;28;20612;-55
2022/09/29 09:38:54;;;;;;;12.65;9.35;;;;;;;12.38;84.93;100124.69;5032332;28;20037;-54
2022/09/29 09:41:23;;;;;;;13.82;9.40;;;;;;;12.52;83.86;100128.56;5032270;28;20033;-55
2022/09/29 09:43:53;;;;;;;10.07;7.35;;;;;;;12.68;82.89;100126.28;5032233;28;20034;-56
2022/09/29 09:46:40;;;;;;;11.35;7.15;;;;;;;12.83;82.45;100122.28;5032058;28;20057;-57
2022/09/29 09:49:17;;;;;;;8.25;6.28;;;;;;;12.90;80.57;100114.16;5032139;28;20120;-56
2022/09/29 09:52:10;;;;;;;10.20;6.65;;;;;;;13.04;81.28;100123.31;5032126;28;20453;-56
2022/09/29 09:54:39;;;;;;;9.35;6.20;;;;;;;12.99;78.52;100127.91;5028952;28;20045;-56
2022/09/29 09:57:08;;;;;;;8.70;6.47;;;;;;;13.17;79.88;100129.88;5030277;28;20527;-56
2022/09/29 09:59:51;;;;;;;8.85;6.63;;;;;;;13.25;78.83;100125.22;5030410;28;20040;-55
2022/09/29 10:02:19;;;;;;;9.05;6.68;;;;;;;13.35;78.43;100128.38;5030495;28;20466;-57
2022/09/29 10:04:55;;;;;;;9.48;7.00;;;;;;;13.38;78.57;100133.50;5030290;28;20037;-56
2022/09/29 10:07:24;;;;;;;8.80;6.60;;;;;;;13.60;77.97;100131.81;5029987;28;20363;-55
2022/09/29 10:09:50;;;;;;;7.93;6.43;;;;;;;13.83;78.82;100134.47;5029824;28;20041;-55
2022/09/29 10:12:23;;;;;;;8.88;6.95;;;;;;;13.88;79.54;100134.25;5030287;28;20048;-54
2022/09/29 10:15:11;;;;;;;9.05;6.63;;;;;;;13.98;78.21;100135.63;5030095;28;20187;-56
2022/09/29 10:17:43;;;;;;;6.90;5.57;;;;;;;14.16;77.46;100132.28;5030010;28;20033;-56
2022/09/29 10:20:09;;;;;;;6.78;5.20;;;;;;;14.26;78.20;100132.78;5030288;28;20048;-56
2022/09/29 10:22:35;;;;;;;7.85;5.25;;;;;;;14.27;74.11;100131.84;5030249;28;20033;-56
2022/09/29 10:25:19;;;;;;;8.13;5.15;;;;;;;14.24;78.04;100135.47;5030251;28;20033;-57
2022/09/29 10:27:49;;;;;;;6.50;4.20;;;;;;;14.31;75.33;100133.47;5012458;28;20369;-56
2022/09/29 10:30:31;;;;;;;6.97;5.18;;;;;;;14.46;75.12;100146.03;5030079;28;20034;-56
2022/09/29 10:32:59;;;;;;;6.47;4.63;;;;;;;14.57;74.24;100145.56;5029946;28;20033;-57
2022/09/29 10:35:31;;;;;;;7.70;5.00;;;;;;;14.49;71.37;100138.00;5030082;28;20037;-57
2022/09/29 10:38:04;;;;;;;7.53;4.20;;;;;;;14.43;70.15;100147.91;5030042;28;20048;-57
2022/09/29 10:40:29;;;;;;;6.88;4.40;;;;;;;14.40;73.66;100145.38;5029804;28;20038;-57
2022/09/29 10:42:56;;;;;;;3.95;3.30;;;;;;;14.47;70.49;100146.88;5029874;28;20029;-55
2022/09/29 10:45:26;;;;;;;6.82;4.00;;;;;;;14.54;70.45;100145.72;5029866;28;20033;-56
2022/09/29 10:47:57;;;;;;;5.05;4.20;;;;;;;14.62;71.37;100149.75;5029587;28;20365;-56
2022/09/29 10:50:29;;;;;;;6.43;4.00;;;;;;;14.72;70.19;100155.47;5029819;28;20087;-57
2022/09/29 10:52:57;;;;;;;5.85;4.22;;;;;;;14.87;72.72;100143.47;5029613;28;20064;-56
2022/09/29 10:55:32;;;;;;;6.18;4.18;;;;;;;14.86;70.42;100136.50;5029846;28;20089;-57
2022/09/29 10:58:00;;;;;;;4.40;3.10;;;;;;;14.95;69.99;100141.34;5029943;28;20037;-57
2022/09/29 11:00:38;;;;;;;3.45;3.15;;;;;;;15.13;70.66;100145.84;5029710;28;20033;-56
2022/09/29 11:03:07;;;;;;;4.03;3.10;;;;;;;15.06;66.67;100149.69;5029572;28;20080;-56
2022/09/29 11:05:34;;;;;;;4.55;3.58;;;;;;;15.12;68.19;100152.03;5029618;28;20457;-56
2022/09/29 11:08:01;;;;;;;3.47;2.95;;;;;;;15.20;66.90;100149.06;5030029;28;20033;-57
2022/09/29 11:10:34;;;;;;;3.28;2.80;;;;;;;15.34;65.26;100151.97;5032789;28;20150;-57
2022/09/29 11:13:23;;;;;;;4.75;2.90;;;;;;;15.43;66.48;100159.44;5033476;28;20037;-57
2022/09/29 11:15:50;;;;;;;4.13;3.10;;;;;;;15.47;66.47;100160.19;5034600;28;20026;-57
2022/09/29 11:18:30;;;;;;;4.60;2.80;;;;;;;15.60;67.51;100154.31;5024660;28;20037;-56
2022/09/29 11:21:21;;;;;;;2.85;2.45;;;;;;;15.81;67.54;100149.84;5034039;28;20043;-55
2022/09/29 11:24:03;;;;;;;3.75;2.35;;;;;;;15.81;65.91;100149.84;5032939;28;20345;-57
2022/09/29 11:26:38;;;;;;;6.05;2.80;;;;;;;15.85;65.07;100153.22;5033449;28;20531;-54
2022/09/29 11:29:25;;;;;;;4.18;3.00;;;;;;;15.71;68.55;100155.63;5033638;28;20033;-57
2022/09/29 11:32:00;;;;;;;4.05;2.50;;;;;;;15.45;65.11;100159.38;5033721;28;20037;-54
2022/09/29 11:34:45;;;;;;;3.67;2.67;;;;;;;15.09;64.42;100154.78;5034519;28;20073;-55